TUI49Z LSZH-EDDH
Flight info
| Callsign | TUI49Z |
|---|---|
| Flight time | N/A |
| Altitude | 36000 |
| Route | DEGES3W/28 DEGES Z1 ETAGO DCT HAREM DCT LOHRE DCT MASEK DCT ELNAT P605 NOLGO NOLGO3P |
| Aircraft | B738/M-SDE2E3FGHIRWXY/LB1 |
Departure
| Time | N/A |
|---|---|
| Airport | Zürich Airport (LSZH) |
Arrival
| Time | 2026-04-24 19:49 |
|---|---|
| Airport | Hamburg Helmut Schmidt Airport (EDDH) |
| Time | Latitude | Longitude | Altitude | Speed | Heading |
|---|---|---|---|---|---|
| 2026-04-24 18:54 | 48.53373 | 9.54225 | 34148 ft | 460 kts | 2° |
| 2026-04-24 18:55 | 48.63008 | 9.55272 | 34161 ft | 464 kts | 2° |
| 2026-04-24 18:56 | 48.69480 | 9.55982 | 34149 ft | 466 kts | 2° |
| 2026-04-24 18:56 | 48.75947 | 9.56873 | 34353 ft | 468 kts | 4° |
| 2026-04-24 18:56 | 48.79139 | 9.57348 | 34718 ft | 465 kts | 4° |
| 2026-04-24 18:57 | 48.82344 | 9.57838 | 35128 ft | 461 kts | 4° |
| 2026-04-24 18:57 | 48.85568 | 9.58345 | 35542 ft | 458 kts | 4° |
| 2026-04-24 18:57 | 48.88693 | 9.58847 | 35900 ft | 457 kts | 4° |
| 2026-04-24 18:57 | 48.91855 | 9.59367 | 36164 ft | 457 kts | 3° |
| 2026-04-24 18:58 | 48.95049 | 9.59912 | 36138 ft | 462 kts | 4° |
| 2026-04-24 18:58 | 49.01447 | 9.61030 | 36149 ft | 461 kts | 4° |
| 2026-04-24 18:59 | 49.07782 | 9.61984 | 36149 ft | 453 kts | 358° |
| 2026-04-24 18:59 | 49.14072 | 9.61729 | 36168 ft | 452 kts | 354° |
| 2026-04-24 19:00 | 49.20356 | 9.61290 | 36158 ft | 452 kts | 353° |
| 2026-04-24 19:00 | 49.26569 | 9.60315 | 36136 ft | 450 kts | 349° |
| 2026-04-24 19:01 | 49.32780 | 9.59063 | 36133 ft | 450 kts | 349° |
| 2026-04-24 19:01 | 49.38993 | 9.57785 | 36136 ft | 450 kts | 349° |
| 2026-04-24 19:02 | 49.44166 | 9.56734 | 36130 ft | 451 kts | 349° |
| 2026-04-24 19:02 | 49.51398 | 9.55273 | 36136 ft | 451 kts | 349° |
| 2026-04-24 19:03 | 49.57639 | 9.54220 | 36135 ft | 454 kts | 357° |
| 2026-04-24 19:03 | 49.63972 | 9.55067 | 36135 ft | 457 kts | 2° |
| 2026-04-24 19:04 | 49.70297 | 9.56196 | 36142 ft | 457 kts | 2° |
| 2026-04-24 19:04 | 49.76619 | 9.57248 | 36142 ft | 456 kts | 2° |
| 2026-04-24 19:05 | 49.82897 | 9.58220 | 36144 ft | 456 kts | 1° |
| 2026-04-24 19:05 | 49.89211 | 9.59171 | 36142 ft | 455 kts | 1° |
| 2026-04-24 19:06 | 49.95522 | 9.60121 | 36140 ft | 455 kts | 1° |
| 2026-04-24 19:06 | 50.01835 | 9.61076 | 36142 ft | 455 kts | 1° |
| 2026-04-24 19:07 | 50.08151 | 9.62037 | 36153 ft | 455 kts | 1° |
| 2026-04-24 19:07 | 50.13398 | 9.62837 | 36151 ft | 455 kts | 1° |
| 2026-04-24 19:08 | 50.20744 | 9.63960 | 36160 ft | 456 kts | 1° |
| 2026-04-24 19:08 | 50.27062 | 9.64928 | 36166 ft | 456 kts | 1° |
| 2026-04-24 19:09 | 50.33385 | 9.65901 | 36162 ft | 456 kts | 1° |
| 2026-04-24 19:09 | 50.39708 | 9.66876 | 36164 ft | 456 kts | 1° |
| 2026-04-24 19:10 | 50.45990 | 9.67847 | 36153 ft | 456 kts | 1° |
| 2026-04-24 19:10 | 50.52308 | 9.68826 | 36161 ft | 456 kts | 0° |
| 2026-04-24 19:11 | 50.58639 | 9.69810 | 36165 ft | 457 kts | 0° |
| 2026-04-24 19:11 | 50.64971 | 9.70796 | 36157 ft | 456 kts | 0° |
| 2026-04-24 19:12 | 50.71287 | 9.71784 | 36161 ft | 455 kts | 0° |
| 2026-04-24 19:12 | 50.77593 | 9.72772 | 36159 ft | 455 kts | 0° |
| 2026-04-24 19:13 | 50.82842 | 9.73596 | 36156 ft | 455 kts | 0° |
| 2026-04-24 19:13 | 50.90179 | 9.74751 | 36149 ft | 455 kts | 0° |
| 2026-04-24 19:14 | 50.96489 | 9.75748 | 36166 ft | 455 kts | 0° |
| 2026-04-24 19:14 | 51.02791 | 9.76746 | 36157 ft | 455 kts | 0° |
| 2026-04-24 19:15 | 51.09091 | 9.77746 | 36153 ft | 455 kts | 0° |
| 2026-04-24 19:15 | 51.15388 | 9.78750 | 36156 ft | 454 kts | 0° |
| 2026-04-24 19:16 | 51.24833 | 9.80258 | 36154 ft | 454 kts | 0° |
| 2026-04-24 19:16 | 51.31082 | 9.81261 | 36154 ft | 454 kts | 0° |
| 2026-04-24 19:17 | 51.37414 | 9.82279 | 36163 ft | 454 kts | 0° |
| 2026-04-24 19:17 | 51.43668 | 9.83287 | 36157 ft | 455 kts | 360° |
| 2026-04-24 19:18 | 51.49959 | 9.84305 | 36153 ft | 454 kts | 360° |
| 2026-04-24 19:18 | 51.56241 | 9.85324 | 36155 ft | 453 kts | 360° |
| 2026-04-24 19:19 | 51.62515 | 9.86343 | 36152 ft | 452 kts | 360° |
| 2026-04-24 19:19 | 51.68775 | 9.87364 | 36161 ft | 452 kts | 0° |
| 2026-04-24 19:20 | 51.74990 | 9.88379 | 36150 ft | 451 kts | 0° |
| 2026-04-24 19:20 | 51.81234 | 9.89404 | 36151 ft | 450 kts | 0° |
| 2026-04-24 19:21 | 51.87485 | 9.90430 | 35942 ft | 455 kts | 0° |
| 2026-04-24 19:21 | 51.90630 | 9.90946 | 35694 ft | 453 kts | 0° |
| 2026-04-24 19:21 | 51.93766 | 9.91465 | 35412 ft | 452 kts | 0° |
| 2026-04-24 19:22 | 51.95885 | 9.91816 | 35133 ft | 453 kts | 0° |
| 2026-04-24 19:22 | 52.00033 | 9.92503 | 34625 ft | 451 kts | 360° |
| 2026-04-24 19:22 | 52.03147 | 9.93020 | 34239 ft | 449 kts | 360° |
| 2026-04-24 19:22 | 52.06260 | 9.93537 | 33816 ft | 448 kts | 360° |
| 2026-04-24 19:23 | 52.09356 | 9.94052 | 33383 ft | 446 kts | 359° |
| 2026-04-24 19:23 | 52.12436 | 9.94565 | 32967 ft | 443 kts | 360° |
| 2026-04-24 19:23 | 52.15456 | 9.95069 | 32558 ft | 440 kts | 359° |
| 2026-04-24 19:23 | 52.18495 | 9.95577 | 32144 ft | 437 kts | 359° |
| 2026-04-24 19:24 | 52.21501 | 9.96080 | 31742 ft | 433 kts | 359° |
| 2026-04-24 19:24 | 52.24492 | 9.96581 | 31336 ft | 430 kts | 359° |
| 2026-04-24 19:24 | 52.27461 | 9.97078 | 30920 ft | 427 kts | 359° |
| 2026-04-24 19:24 | 52.30402 | 9.97571 | 30510 ft | 424 kts | 359° |
| 2026-04-24 19:25 | 52.33332 | 9.98062 | 30024 ft | 423 kts | 359° |
| 2026-04-24 19:25 | 52.36256 | 9.98551 | 29424 ft | 421 kts | 359° |
| 2026-04-24 19:25 | 52.39168 | 9.99040 | 28824 ft | 420 kts | 360° |
| 2026-04-24 19:25 | 52.42076 | 9.99530 | 28216 ft | 418 kts | 0° |
| 2026-04-24 19:26 | 52.44962 | 10.00018 | 27639 ft | 416 kts | 0° |
| 2026-04-24 19:26 | 52.47836 | 10.00503 | 27074 ft | 414 kts | 0° |
| 2026-04-24 19:26 | 52.50691 | 10.00986 | 26500 ft | 412 kts | 0° |
| 2026-04-24 19:26 | 52.53528 | 10.01468 | 25958 ft | 405 kts | 1° |
| 2026-04-24 19:27 | 52.56293 | 10.02076 | 25410 ft | 399 kts | 7° |
| 2026-04-24 19:27 | 52.58077 | 10.02782 | 25056 ft | 395 kts | 10° |
| 2026-04-24 19:27 | 52.60706 | 10.03994 | 24553 ft | 388 kts | 11° |
| 2026-04-24 19:27 | 52.63281 | 10.05222 | 24036 ft | 383 kts | 11° |
| 2026-04-24 19:28 | 52.66666 | 10.06806 | 23312 ft | 382 kts | 11° |
| 2026-04-24 19:28 | 52.68404 | 10.07599 | 22914 ft | 383 kts | 11° |
| 2026-04-24 19:28 | 52.70949 | 10.08747 | 22381 ft | 383 kts | 11° |
| 2026-04-24 19:28 | 52.73518 | 10.09901 | 21858 ft | 382 kts | 11° |
| 2026-04-24 19:29 | 52.78657 | 10.11887 | 20831 ft | 374 kts | 1° |
| 2026-04-24 19:29 | 52.81225 | 10.12055 | 20347 ft | 366 kts | 357° |
| 2026-04-24 19:29 | 52.83745 | 10.12113 | 19858 ft | 359 kts | 356° |
| 2026-04-24 19:30 | 52.86223 | 10.12154 | 19373 ft | 353 kts | 356° |
| 2026-04-24 19:30 | 52.88659 | 10.12200 | 18897 ft | 348 kts | 357° |
| 2026-04-24 19:30 | 52.91064 | 10.12255 | 18424 ft | 343 kts | 357° |
| 2026-04-24 19:30 | 52.93431 | 10.12318 | 17890 ft | 339 kts | 357° |
| 2026-04-24 19:31 | 52.95776 | 10.12387 | 17359 ft | 335 kts | 357° |
| 2026-04-24 19:31 | 52.98092 | 10.12458 | 16881 ft | 330 kts | 357° |
| 2026-04-24 19:31 | 53.00373 | 10.12531 | 16398 ft | 326 kts | 357° |
| 2026-04-24 19:31 | 53.02634 | 10.12604 | 15915 ft | 323 kts | 358° |
| 2026-04-24 19:32 | 53.04869 | 10.12677 | 15453 ft | 320 kts | 358° |
| 2026-04-24 19:32 | 53.07085 | 10.12749 | 14988 ft | 317 kts | 358° |
| 2026-04-24 19:32 | 53.09285 | 10.12822 | 14533 ft | 315 kts | 358° |
| 2026-04-24 19:32 | 53.11470 | 10.12893 | 14084 ft | 313 kts | 358° |
| 2026-04-24 19:33 | 53.13645 | 10.12965 | 13595 ft | 311 kts | 358° |
| 2026-04-24 19:33 | 53.15805 | 10.13037 | 13102 ft | 310 kts | 358° |
| 2026-04-24 19:33 | 53.17968 | 10.13107 | 12618 ft | 312 kts | 358° |
| 2026-04-24 19:33 | 53.20149 | 10.13179 | 12140 ft | 313 kts | 358° |
| 2026-04-24 19:34 | 53.22293 | 10.13250 | 11675 ft | 313 kts | 358° |
| 2026-04-24 19:34 | 53.24452 | 10.13323 | 11204 ft | 308 kts | 358° |
| 2026-04-24 19:34 | 53.26578 | 10.13396 | 10739 ft | 303 kts | 359° |
| 2026-04-24 19:34 | 53.28689 | 10.13466 | 10317 ft | 303 kts | 359° |
| 2026-04-24 19:35 | 53.30748 | 10.13536 | 10012 ft | 290 kts | 359° |
| 2026-04-24 19:35 | 53.32741 | 10.13604 | 9614 ft | 280 kts | 358° |
| 2026-04-24 19:35 | 53.34653 | 10.13669 | 9265 ft | 269 kts | 358° |
| 2026-04-24 19:35 | 53.36496 | 10.13731 | 8915 ft | 261 kts | 358° |
| 2026-04-24 19:36 | 53.38290 | 10.13791 | 8590 ft | 257 kts | 358° |
| 2026-04-24 19:36 | 53.40080 | 10.13824 | 8260 ft | 256 kts | 355° |
| 2026-04-24 19:36 | 53.41828 | 10.13645 | 7935 ft | 255 kts | 353° |
| 2026-04-24 19:36 | 53.43610 | 10.13397 | 7655 ft | 253 kts | 353° |
| 2026-04-24 19:37 | 53.45335 | 10.13155 | 7424 ft | 252 kts | 353° |
| 2026-04-24 19:37 | 53.47094 | 10.12914 | 7214 ft | 254 kts | 353° |
| 2026-04-24 19:37 | 53.48859 | 10.12680 | 7167 ft | 255 kts | 353° |
| 2026-04-24 19:37 | 53.50654 | 10.12446 | 7147 ft | 259 kts | 353° |
| 2026-04-24 19:38 | 53.52442 | 10.12217 | 7135 ft | 256 kts | 353° |
| 2026-04-24 19:38 | 53.54161 | 10.12000 | 7116 ft | 238 kts | 353° |
| 2026-04-24 19:38 | 53.55773 | 10.11797 | 7112 ft | 227 kts | 353° |
| 2026-04-24 19:38 | 53.57334 | 10.11683 | 7125 ft | 224 kts | 3° |
| 2026-04-24 19:39 | 53.58788 | 10.12658 | 7140 ft | 230 kts | 29° |
| 2026-04-24 19:39 | 53.59969 | 10.14521 | 7136 ft | 236 kts | 44° |
| 2026-04-24 19:39 | 53.61008 | 10.16658 | 7138 ft | 236 kts | 45° |
| 2026-04-24 19:39 | 53.62051 | 10.18794 | 7132 ft | 236 kts | 44° |
| 2026-04-24 19:40 | 53.63088 | 10.20916 | 7133 ft | 237 kts | 44° |
| 2026-04-24 19:40 | 53.64142 | 10.23061 | 7136 ft | 238 kts | 44° |
| 2026-04-24 19:40 | 53.65207 | 10.25215 | 7141 ft | 239 kts | 44° |
| 2026-04-24 19:40 | 53.66276 | 10.27375 | 7143 ft | 241 kts | 44° |
| 2026-04-24 19:41 | 53.67350 | 10.29546 | 7141 ft | 242 kts | 44° |
| 2026-04-24 19:41 | 53.68431 | 10.31733 | 7132 ft | 243 kts | 44° |
| 2026-04-24 19:41 | 53.69513 | 10.33923 | 7126 ft | 243 kts | 44° |
| 2026-04-24 19:41 | 53.70597 | 10.36116 | 7125 ft | 243 kts | 44° |
| 2026-04-24 19:42 | 53.71681 | 10.38313 | 7117 ft | 243 kts | 44° |
| 2026-04-24 19:42 | 53.72761 | 10.40505 | 7119 ft | 243 kts | 44° |
| 2026-04-24 19:42 | 53.73890 | 10.42619 | 7100 ft | 238 kts | 32° |
| 2026-04-24 19:42 | 53.75348 | 10.43696 | 7006 ft | 228 kts | 4° |
| 2026-04-24 19:43 | 53.76917 | 10.43344 | 6485 ft | 230 kts | 333° |
| 2026-04-24 19:43 | 53.78115 | 10.41602 | 5986 ft | 232 kts | 304° |
| 2026-04-24 19:43 | 53.78578 | 10.38977 | 5526 ft | 240 kts | 274° |
| 2026-04-24 19:43 | 53.78387 | 10.36152 | 5105 ft | 242 kts | 265° |
| 2026-04-24 19:44 | 53.78092 | 10.33379 | 4672 ft | 242 kts | 264° |
| 2026-04-24 19:44 | 53.77778 | 10.30585 | 4255 ft | 242 kts | 264° |
| 2026-04-24 19:44 | 53.77259 | 10.27881 | 3907 ft | 245 kts | 245° |
| 2026-04-24 19:44 | 53.76245 | 10.25582 | 3662 ft | 241 kts | 237° |
| 2026-04-24 19:45 | 53.75187 | 10.23415 | 3407 ft | 234 kts | 237° |
| 2026-04-24 19:45 | 53.74170 | 10.21352 | 3203 ft | 221 kts | 237° |
| 2026-04-24 19:45 | 53.73222 | 10.19444 | 3045 ft | 205 kts | 238° |
| 2026-04-24 19:45 | 53.72330 | 10.17639 | 2799 ft | 196 kts | 238° |
| 2026-04-24 19:46 | 53.71471 | 10.15902 | 2539 ft | 190 kts | 238° |
| 2026-04-24 19:46 | 53.70640 | 10.14220 | 2279 ft | 182 kts | 237° |
| 2026-04-24 19:46 | 53.69855 | 10.12634 | 2031 ft | 175 kts | 237° |
| 2026-04-24 19:46 | 53.69093 | 10.11093 | 1787 ft | 167 kts | 237° |
| 2026-04-24 19:47 | 53.68372 | 10.09634 | 1611 ft | 154 kts | 238° |
| 2026-04-24 19:47 | 53.67709 | 10.08293 | 1364 ft | 143 kts | 238° |
| 2026-04-24 19:47 | 53.67081 | 10.07018 | 1146 ft | 141 kts | 238° |
| 2026-04-24 19:47 | 53.66454 | 10.05745 | 983 ft | 143 kts | 237° |
| 2026-04-24 19:48 | 53.65824 | 10.04470 | 767 ft | 139 kts | 236° |
| 2026-04-24 19:48 | 53.65208 | 10.03230 | 558 ft | 138 kts | 235° |
| 2026-04-24 19:48 | 53.63956 | 10.00691 | 204 ft | 137 kts | 235° |
| 2026-04-24 19:49 | 53.62872 | 9.98487 | 43 ft | 76 kts | 230° |
| 2026-04-24 19:49 | 53.62459 | 9.97802 | 41 ft | 16 kts | 148° |
| 2026-04-24 19:50 | 53.62491 | 9.98150 | 46 ft | 15 kts | 51° |
| 2026-04-24 19:50 | 53.62561 | 9.98292 | 46 ft | 16 kts | 49° |
| 2026-04-24 19:51 | 53.62694 | 9.98559 | 46 ft | 14 kts | 49° |
| 2026-04-24 19:51 | 53.62757 | 9.98689 | 46 ft | 15 kts | 50° |
| 2026-04-24 19:52 | 53.62904 | 9.98986 | 46 ft | 16 kts | 50° |
| 2026-04-24 19:52 | 53.62975 | 9.99130 | 46 ft | 16 kts | 50° |
| 2026-04-24 19:52 | 53.63043 | 9.99269 | 46 ft | 15 kts | 52° |
| 2026-04-24 19:52 | 53.63077 | 9.99348 | 46 ft | 3 kts | 56° |
| 2026-04-24 19:53 | 53.63080 | 9.99357 | 46 ft | 0 kts | 56° |
| 2026-04-24 19:53 | 53.63136 | 9.99493 | 45 ft | 19 kts | 55° |
| 2026-04-24 19:54 | 53.63203 | 9.99633 | 47 ft | 11 kts | 50° |
| 2026-04-24 19:54 | 53.63220 | 9.99667 | 47 ft | 2 kts | 51° |
| 2026-04-24 19:54 | 53.63228 | 9.99686 | 47 ft | 4 kts | 61° |
| 2026-04-24 19:54 | 53.63199 | 9.99781 | 46 ft | 10 kts | 154° |
| 2026-04-24 19:55 | 53.63160 | 9.99813 | 46 ft | 8 kts | 152° |
| 2026-04-24 19:55 | 53.63117 | 9.99892 | 47 ft | 8 kts | 80° |
| 2026-04-24 19:55 | 53.63135 | 9.99944 | 46 ft | 4 kts | 52° |
| 2026-04-24 19:55 | 53.63155 | 9.99968 | 47 ft | 1 kts | 5° |
| 2026-04-24 19:56 | 53.63171 | 9.99948 | 47 ft | 5 kts | 320° |
| 2026-04-24 19:56 | 53.63188 | 9.99924 | 47 ft | 0 kts | 319° |
| 2026-04-24 19:56 | 53.63188 | 9.99923 | 47 ft | 0 kts | 320° |